createdAt,value
2018-07-07T00:01:11.938Z,18.77
2018-07-07T00:03:40.236Z,19.23
2018-07-07T00:06:08.570Z,18.60
2018-07-07T00:08:36.900Z,26.13
2018-07-07T00:11:05.440Z,20.50
2018-07-07T00:13:33.758Z,18.03
2018-07-07T00:16:02.201Z,14.83
2018-07-07T00:18:30.525Z,24.70
2018-07-07T00:20:58.852Z,19.00
2018-07-07T00:23:27.202Z,15.40
2018-07-07T00:25:55.485Z,24.87
2018-07-07T00:28:23.834Z,20.53
2018-07-07T00:30:52.114Z,13.93
2018-07-07T00:33:20.445Z,26.27
2018-07-07T00:35:50.661Z,15.00
2018-07-07T00:38:19.012Z,14.30
2018-07-07T00:40:47.321Z,16.20
2018-07-07T00:43:15.618Z,21.30
2018-07-07T00:45:43.982Z,16.37
2018-07-07T00:48:12.287Z,16.80
2018-07-07T00:50:40.589Z,20.07
2018-07-07T00:53:08.864Z,17.80
2018-07-07T00:55:37.209Z,29.73
2018-07-07T00:58:05.561Z,23.43
2018-07-07T01:00:39.437Z,20.00
2018-07-07T01:03:07.700Z,20.13
2018-07-07T01:05:37.215Z,18.17
2018-07-07T01:08:05.654Z,25.37
2018-07-07T01:10:34.154Z,18.33
2018-07-07T01:13:02.493Z,22.63
2018-07-07T01:15:31.168Z,19.03
2018-07-07T01:17:59.481Z,20.03
2018-07-07T01:20:27.825Z,18.23
2018-07-07T01:22:56.139Z,17.30
2018-07-07T01:25:24.485Z,32.33
2018-07-07T01:27:52.764Z,24.80
2018-07-07T01:30:21.118Z,16.13
2018-07-07T01:32:49.435Z,26.33
2018-07-07T01:35:17.774Z,19.90
2018-07-07T01:37:46.319Z,26.33
2018-07-07T01:40:14.899Z,18.77
2018-07-07T01:42:43.200Z,21.40
2018-07-07T01:45:11.549Z,25.13
2018-07-07T01:47:39.850Z,19.93
2018-07-07T01:50:08.889Z,23.80
2018-07-07T01:52:37.167Z,19.67
2018-07-07T01:55:05.530Z,18.83
2018-07-07T01:57:33.838Z,25.60
2018-07-07T02:00:02.190Z,15.77
2018-07-07T02:02:30.515Z,19.33
2018-07-07T02:04:58.817Z,19.10
2018-07-07T02:07:27.114Z,21.50
2018-07-07T02:09:55.521Z,28.97
2018-07-07T02:12:23.881Z,26.77
2018-07-07T02:14:52.201Z,26.27
2018-07-07T02:17:20.525Z,24.10
2018-07-07T02:19:48.816Z,23.60
2018-07-07T02:22:18.698Z,17.43
2018-07-07T02:24:47.049Z,16.43
2018-07-07T02:27:15.370Z,21.27
2018-07-07T02:29:43.636Z,25.93
2018-07-07T02:32:11.979Z,22.87
2018-07-07T02:34:40.249Z,17.43
2018-07-07T02:37:08.578Z,14.80
2018-07-07T02:39:36.901Z,21.17
2018-07-07T02:42:05.230Z,17.87
2018-07-07T02:44:33.522Z,20.97
2018-07-07T02:47:01.869Z,19.50
2018-07-07T02:49:30.168Z,24.33
2018-07-07T02:51:58.514Z,19.20
2018-07-07T02:54:27.028Z,26.73
2018-07-07T02:56:55.352Z,25.87
2018-07-07T02:59:24.564Z,18.63
2018-07-07T03:01:52.901Z,27.40
2018-07-07T03:04:21.223Z,30.47
2018-07-07T03:06:49.533Z,22.80
2018-07-07T03:09:17.815Z,22.97
2018-07-07T03:11:46.141Z,19.23
2018-07-07T03:14:14.464Z,27.80
2018-07-07T03:16:42.822Z,20.60
2018-07-07T03:19:11.137Z,19.47
2018-07-07T03:21:39.462Z,23.60
2018-07-07T03:24:08.130Z,22.90
2018-07-07T03:26:36.491Z,21.90
2018-07-07T03:29:04.815Z,16.90
2018-07-07T03:31:33.142Z,20.83
2018-07-07T03:34:01.437Z,20.53
2018-07-07T03:36:29.763Z,18.97
2018-07-07T03:38:58.086Z,30.17
2018-07-07T03:41:26.424Z,16.50
2018-07-07T03:43:54.745Z,19.67
2018-07-07T03:46:23.045Z,20.50
2018-07-07T03:48:51.348Z,20.70
2018-07-07T03:51:19.634Z,19.17
2018-07-07T03:53:47.954Z,23.57
2018-07-07T03:56:16.340Z,20.90
2018-07-07T03:58:44.684Z,35.60
2018-07-07T04:01:13.342Z,19.90
2018-07-07T04:03:41.642Z,30.40
2018-07-07T04:06:09.962Z,17.77
2018-07-07T04:08:38.315Z,21.80
2018-07-07T04:11:06.930Z,26.93
2018-07-07T04:13:35.222Z,23.40
2018-07-07T04:16:03.540Z,25.63
2018-07-07T04:18:34.689Z,21.43
2018-07-07T04:21:04.079Z,67.87
2018-07-07T04:23:33.133Z,30.97
2018-07-07T04:26:01.904Z,45.13
2018-07-07T04:28:30.681Z,37.03
2018-07-07T04:30:59.499Z,36.87
2018-07-07T04:33:28.189Z,37.63
2018-07-07T04:35:56.500Z,26.73
2018-07-07T04:38:24.833Z,29.60
2018-07-07T04:40:53.122Z,24.50
2018-07-07T04:43:21.463Z,23.40
2018-07-07T04:45:49.733Z,24.50
2018-07-07T04:48:18.034Z,21.37
2018-07-07T04:50:46.312Z,24.00
2018-07-07T04:53:14.640Z,23.37
2018-07-07T04:55:42.990Z,22.13
2018-07-07T04:58:11.260Z,29.47
2018-07-07T05:00:39.595Z,21.93
2018-07-07T05:03:08.017Z,36.50
2018-07-07T05:05:36.323Z,24.07
2018-07-07T05:08:05.599Z,29.93
2018-07-07T05:10:34.281Z,29.20
2018-07-07T05:13:02.659Z,23.00
2018-07-07T05:15:31.037Z,23.97
2018-07-07T05:17:59.374Z,16.90
2018-07-07T05:20:27.722Z,29.57
2018-07-07T05:22:56.008Z,17.07
2018-07-07T05:25:24.351Z,18.03
2018-07-07T05:27:52.626Z,19.60
2018-07-07T05:30:20.971Z,22.63
2018-07-07T05:32:49.310Z,21.90
2018-07-07T05:35:17.733Z,20.17
2018-07-07T05:37:46.090Z,21.50
2018-07-07T05:40:14.465Z,24.53
2018-07-07T05:42:42.975Z,19.40
2018-07-07T05:45:11.264Z,19.30
2018-07-07T05:47:39.571Z,20.93
2018-07-07T05:50:07.961Z,16.37
2018-07-07T05:52:36.249Z,15.13
2018-07-07T05:55:04.634Z,16.27
2018-07-07T05:57:32.920Z,15.33
2018-07-07T06:00:01.240Z,20.47
2018-07-07T06:02:29.925Z,18.20
2018-07-07T06:04:58.293Z,14.87
2018-07-07T06:07:26.584Z,18.73
2018-07-07T06:09:55.668Z,13.53
2018-07-07T06:12:23.991Z,14.60
2018-07-07T06:14:52.295Z,13.33
2018-07-07T06:17:20.609Z,18.03
2018-07-07T06:19:48.950Z,13.40
2018-07-07T06:22:17.242Z,16.80
2018-07-07T06:24:45.533Z,13.73
2018-07-07T06:27:13.891Z,12.30
2018-07-07T06:29:42.189Z,18.13
2018-07-07T06:32:10.533Z,13.40
2018-07-07T06:34:38.825Z,10.70
2018-07-07T06:37:07.185Z,12.43
2018-07-07T06:39:35.573Z,9.60
2018-07-07T06:42:03.924Z,9.57
2018-07-07T06:44:32.254Z,11.90
2018-07-07T06:47:00.570Z,10.80
2018-07-07T06:49:28.945Z,10.47
2018-07-07T06:51:57.345Z,10.07
2018-07-07T06:54:25.702Z,9.43
2018-07-07T06:56:54.025Z,11.23
2018-07-07T06:59:22.307Z,10.00
2018-07-07T07:01:50.640Z,10.20
2018-07-07T07:04:18.969Z,10.50
2018-07-07T07:06:47.451Z,10.20
2018-07-07T07:09:15.721Z,8.63
2018-07-07T07:11:44.043Z,9.07
2018-07-07T07:14:12.657Z,11.90
2018-07-07T07:16:40.959Z,9.13
2018-07-07T07:19:10.074Z,10.63
2018-07-07T07:21:39.021Z,9.10
2018-07-07T07:24:07.319Z,9.30
2018-07-07T07:26:35.636Z,8.47
2018-07-07T07:29:04.354Z,15.17
2018-07-07T07:31:32.671Z,13.77
2018-07-07T07:34:00.949Z,8.83
2018-07-07T07:36:36.314Z,7.30
2018-07-07T07:39:04.689Z,8.90
2018-07-07T07:41:33.085Z,10.90
2018-07-07T07:44:01.634Z,8.17
2018-07-07T07:46:30.346Z,7.63
2018-07-07T07:48:58.653Z,10.10
2018-07-07T07:51:26.981Z,8.40
2018-07-07T07:53:55.537Z,7.93
2018-07-07T07:56:23.829Z,8.03
2018-07-07T07:58:52.421Z,11.60
2018-07-07T08:01:20.817Z,9.97
2018-07-07T08:03:49.337Z,7.43
2018-07-07T08:06:17.630Z,10.40
2018-07-07T08:08:46.085Z,19.87
2018-07-07T08:11:14.382Z,7.20
2018-07-07T08:13:42.849Z,8.97
2018-07-07T08:16:11.205Z,7.60
2018-07-07T08:18:39.509Z,8.20
2018-07-07T08:21:07.840Z,11.67
2018-07-07T08:23:36.168Z,7.70
2018-07-07T08:26:04.470Z,7.63
2018-07-07T08:28:32.839Z,7.47
2018-07-07T08:31:01.086Z,8.40
2018-07-07T08:33:29.377Z,7.80
2018-07-07T08:35:57.695Z,8.13
2018-07-07T08:38:25.985Z,7.67
2018-07-07T08:40:54.257Z,14.13
2018-07-07T08:43:22.574Z,9.30
2018-07-07T08:45:50.841Z,7.70
2018-07-07T08:48:19.153Z,7.53
2018-07-07T08:50:47.451Z,10.10
2018-07-07T08:53:15.746Z,21.40
2018-07-07T08:55:44.084Z,12.50
2018-07-07T08:58:12.397Z,5.53
2018-07-07T09:00:40.673Z,7.17
2018-07-07T09:03:08.973Z,5.00
2018-07-07T09:05:37.265Z,7.53
2018-07-07T09:08:05.610Z,6.37
2018-07-07T09:10:33.876Z,5.27
2018-07-07T09:13:02.199Z,5.00
2018-07-07T09:15:30.497Z,5.10
2018-07-07T09:17:58.808Z,10.20
2018-07-07T09:20:27.134Z,4.30
2018-07-07T09:22:55.405Z,5.30
2018-07-07T09:25:23.741Z,4.70
2018-07-07T09:27:52.005Z,5.10
2018-07-07T09:30:20.325Z,10.20
2018-07-07T09:32:48.610Z,8.60
2018-07-07T09:35:16.906Z,7.20
2018-07-07T09:37:45.161Z,7.70
2018-07-07T09:40:13.480Z,5.03
2018-07-07T09:42:41.786Z,5.53
2018-07-07T09:45:10.095Z,9.07
2018-07-07T09:47:38.381Z,10.60
2018-07-07T09:50:06.714Z,6.50
2018-07-07T09:52:34.973Z,5.47
2018-07-07T09:55:03.301Z,8.00
2018-07-07T09:57:31.614Z,13.60
2018-07-07T09:59:59.926Z,8.90
2018-07-07T10:02:28.184Z,7.93
2018-07-07T10:04:56.476Z,7.63
2018-07-07T10:07:24.835Z,6.87
2018-07-07T10:09:53.106Z,9.37
2018-07-07T10:12:21.378Z,6.73
2018-07-07T10:14:49.731Z,9.10
2018-07-07T10:17:18.053Z,7.67
2018-07-07T10:19:46.373Z,7.67
2018-07-07T10:22:14.705Z,8.53
2018-07-07T10:24:43.000Z,5.53
2018-07-07T10:27:11.306Z,7.20
2018-07-07T10:29:39.594Z,14.60
2018-07-07T10:32:07.887Z,6.53
2018-07-07T10:34:36.246Z,8.90
2018-07-07T10:37:04.570Z,13.67
2018-07-07T10:39:32.825Z,6.97
2018-07-07T10:42:01.124Z,6.47
2018-07-07T10:44:29.380Z,8.43
2018-07-07T10:46:57.771Z,7.00
2018-07-07T10:49:26.149Z,7.50
2018-07-07T10:51:54.469Z,7.33
2018-07-07T10:54:22.758Z,8.73
2018-07-07T10:56:51.049Z,16.83
2018-07-07T10:59:19.337Z,16.40
2018-07-07T11:01:47.651Z,12.13
2018-07-07T11:04:15.934Z,12.33
2018-07-07T11:06:44.238Z,12.00
2018-07-07T11:09:12.740Z,13.70
2018-07-07T11:11:41.075Z,11.83
2018-07-07T11:14:09.374Z,9.03
2018-07-07T11:16:37.685Z,7.70
2018-07-07T11:19:05.967Z,15.00
2018-07-07T11:21:34.278Z,11.37
2018-07-07T11:24:02.574Z,18.47
2018-07-07T11:26:30.885Z,12.80
2018-07-07T11:28:59.151Z,12.10
2018-07-07T11:31:27.434Z,10.33
2018-07-07T11:33:55.704Z,11.50
2018-07-07T11:36:24.077Z,8.17
2018-07-07T11:38:52.423Z,9.87
2018-07-07T11:41:22.428Z,14.83
2018-07-07T11:43:51.069Z,9.13
2018-07-07T11:46:19.401Z,14.63
2018-07-07T11:48:47.692Z,13.23
2018-07-07T11:51:16.000Z,12.43
2018-07-07T11:53:44.317Z,12.93
2018-07-07T11:56:12.649Z,13.13
2018-07-07T11:58:40.939Z,12.43
2018-07-07T12:01:09.319Z,10.80
2018-07-07T12:03:37.644Z,10.60
2018-07-07T12:06:05.913Z,13.57
2018-07-07T12:08:34.238Z,13.00
2018-07-07T12:11:02.565Z,14.83
2018-07-07T12:13:30.865Z,14.00
2018-07-07T12:15:59.150Z,19.17
2018-07-07T12:18:27.466Z,14.60
2018-07-07T12:20:55.733Z,9.50
2018-07-07T12:23:24.230Z,14.93
2018-07-07T12:25:52.636Z,13.70
2018-07-07T12:28:20.958Z,17.33
2018-07-07T12:30:49.242Z,13.40
2018-07-07T12:33:17.581Z,9.20
2018-07-07T12:35:46.009Z,10.47
2018-07-07T12:38:14.450Z,17.33
2018-07-07T12:40:42.780Z,9.47
2018-07-07T12:43:11.107Z,15.57
2018-07-07T12:45:39.393Z,11.90
2018-07-07T12:48:07.714Z,15.57
2018-07-07T12:50:35.984Z,14.60
2018-07-07T12:53:04.301Z,12.70
2018-07-07T12:55:32.612Z,11.73
2018-07-07T12:58:00.897Z,9.53
2018-07-07T13:00:29.201Z,9.30
2018-07-07T13:02:57.510Z,10.13
2018-07-07T13:05:25.797Z,14.43
2018-07-07T13:07:54.137Z,16.63
2018-07-07T13:10:22.389Z,22.73
2018-07-07T13:12:50.750Z,8.97
2018-07-07T13:15:19.050Z,11.87
2018-07-07T13:17:47.373Z,8.97
2018-07-07T13:20:15.716Z,13.70
2018-07-07T13:22:44.032Z,11.40
2018-07-07T13:25:12.336Z,11.40
2018-07-07T13:27:40.618Z,28.63
2018-07-07T13:30:08.971Z,28.80
2018-07-07T13:32:37.291Z,9.93
2018-07-07T13:35:05.605Z,24.30
2018-07-07T13:37:33.884Z,9.70
2018-07-07T13:40:02.298Z,9.23
2018-07-07T13:42:30.581Z,15.30
2018-07-07T13:44:58.921Z,10.20
2018-07-07T13:47:27.196Z,10.77
2018-07-07T13:49:55.502Z,14.43
2018-07-07T13:52:23.778Z,13.17
2018-07-07T13:54:52.131Z,15.23
2018-07-07T13:57:20.416Z,16.43
2018-07-07T13:59:48.737Z,19.40
2018-07-07T14:02:17.343Z,14.53
2018-07-07T14:04:45.607Z,10.37
2018-07-07T14:07:13.880Z,13.60
2018-07-07T14:09:42.222Z,10.70
2018-07-07T14:12:10.547Z,9.47
2018-07-07T14:14:38.838Z,13.30
2018-07-07T14:17:07.223Z,14.97
2018-07-07T14:19:35.493Z,11.77
2018-07-07T14:22:03.773Z,12.47
2018-07-07T14:24:32.057Z,11.20
2018-07-07T14:27:00.337Z,11.43
2018-07-07T14:29:28.666Z,8.40
2018-07-07T14:31:56.930Z,7.30
2018-07-07T14:34:25.249Z,8.33
2018-07-07T14:36:53.745Z,10.00
2018-07-07T14:39:22.022Z,11.33
2018-07-07T14:41:53.807Z,11.20
2018-07-07T14:44:22.088Z,13.40
2018-07-07T14:46:50.577Z,11.27
2018-07-07T14:49:18.867Z,12.10
2018-07-07T14:51:47.157Z,10.93
2018-07-07T14:54:15.492Z,8.60
2018-07-07T14:56:43.830Z,9.47
2018-07-07T14:59:12.102Z,12.83
2018-07-07T15:01:40.417Z,12.70
2018-07-07T15:04:08.698Z,12.00
2018-07-07T15:06:37.020Z,13.20
2018-07-07T15:09:05.318Z,9.90
2018-07-07T15:11:33.626Z,11.60
2018-07-07T15:14:01.934Z,9.77
2018-07-07T15:16:30.214Z,9.53
2018-07-07T15:18:58.482Z,12.00
2018-07-07T15:21:26.804Z,9.77
2018-07-07T15:23:55.108Z,9.80
2018-07-07T15:26:23.442Z,8.10
2018-07-07T15:28:51.726Z,8.40
2018-07-07T15:31:20.031Z,10.37
2018-07-07T15:33:48.325Z,10.20
2018-07-07T15:36:16.651Z,11.23
2018-07-07T15:38:44.924Z,9.13
2018-07-07T15:41:13.242Z,9.87
2018-07-07T15:43:41.566Z,11.43
2018-07-07T15:46:09.862Z,11.93
2018-07-07T15:48:39.151Z,10.80
2018-07-07T15:51:07.438Z,10.43
2018-07-07T15:53:35.716Z,12.87
2018-07-07T15:56:04.061Z,9.33
2018-07-07T15:58:32.342Z,8.87
2018-07-07T16:01:00.666Z,9.20
2018-07-07T16:03:28.931Z,9.10
2018-07-07T16:05:57.241Z,20.23
2018-07-07T16:08:25.582Z,12.33
2018-07-07T16:10:53.878Z,11.53
2018-07-07T16:13:22.181Z,9.87
2018-07-07T16:15:50.457Z,11.73
2018-07-07T16:18:18.749Z,15.90
2018-07-07T16:20:47.038Z,18.27
2018-07-07T16:23:15.346Z,14.90
2018-07-07T16:25:43.624Z,10.13
2018-07-07T16:28:11.911Z,12.50
2018-07-07T16:30:40.218Z,11.40
2018-07-07T16:33:08.523Z,10.33
2018-07-07T16:35:36.797Z,10.47
2018-07-07T16:38:05.153Z,13.07
2018-07-07T16:40:33.601Z,11.67
2018-07-07T16:43:01.931Z,9.60
2018-07-07T16:45:30.437Z,16.63
2018-07-07T16:47:58.946Z,8.57
2018-07-07T16:50:27.537Z,10.90
2018-07-07T16:52:55.885Z,10.93
2018-07-07T16:55:24.608Z,14.30
2018-07-07T16:57:52.986Z,10.90
2018-07-07T17:00:21.324Z,10.83
2018-07-07T17:02:50.373Z,13.73
2018-07-07T17:05:18.678Z,14.60
2018-07-07T17:07:47.508Z,13.53
2018-07-07T17:10:16.571Z,14.33
2018-07-07T17:12:45.727Z,12.90
2018-07-07T17:15:14.032Z,11.37
2018-07-07T17:17:42.395Z,11.03
2018-07-07T17:20:10.710Z,9.47
2018-07-07T17:22:39.033Z,10.90
2018-07-07T17:25:07.351Z,12.13
2018-07-07T17:27:35.672Z,10.77
2018-07-07T17:30:03.986Z,11.67
2018-07-07T17:32:32.266Z,16.93
2018-07-07T17:35:01.454Z,18.87
2018-07-07T17:37:29.750Z,14.50
2018-07-07T17:39:58.117Z,13.07
2018-07-07T17:42:26.488Z,13.70
2018-07-07T17:44:54.785Z,13.93
2018-07-07T17:47:23.142Z,10.67
2018-07-07T17:49:51.488Z,14.33
2018-07-07T17:52:19.805Z,11.43
2018-07-07T17:54:48.174Z,15.60
2018-07-07T17:57:16.497Z,15.07
2018-07-07T17:59:44.902Z,11.67
2018-07-07T18:02:13.204Z,15.90
2018-07-07T18:04:41.549Z,16.77
2018-07-07T18:07:09.872Z,15.37
2018-07-07T18:09:38.166Z,13.77
2018-07-07T18:12:06.671Z,12.13
2018-07-07T18:14:34.978Z,13.40
2018-07-07T18:17:03.282Z,17.40
2018-07-07T18:19:31.727Z,16.77
2018-07-07T18:22:00.032Z,19.87
2018-07-07T18:24:28.376Z,16.87
2018-07-07T18:26:56.678Z,13.67
2018-07-07T18:29:24.983Z,11.97
2018-07-07T18:31:53.297Z,14.13
2018-07-07T18:34:21.602Z,16.70
2018-07-07T18:36:50.445Z,15.53
2018-07-07T18:39:19.565Z,19.60
2018-07-07T18:41:48.975Z,13.30
2018-07-07T18:44:17.741Z,14.97
2018-07-07T18:46:47.186Z,18.87
2018-07-07T18:49:15.905Z,20.10
2018-07-07T18:51:45.553Z,13.43
2018-07-07T18:54:14.275Z,12.87
2018-07-07T18:56:43.834Z,16.83
2018-07-07T18:59:13.506Z,11.77
2018-07-07T19:01:42.773Z,15.90
2018-07-07T19:04:11.544Z,16.80
2018-07-07T19:06:40.341Z,16.70
2018-07-07T19:09:09.565Z,17.17
2018-07-07T19:11:38.489Z,17.07
2018-07-07T19:14:07.518Z,17.67
2018-07-07T19:16:36.604Z,14.77
2018-07-07T19:19:05.340Z,19.27
2018-07-07T19:21:39.415Z,15.83
2018-07-07T19:24:13.406Z,13.07
2018-07-07T19:26:53.521Z,13.83
2018-07-07T19:29:23.154Z,19.13
2018-07-07T19:31:56.756Z,26.53
2018-07-07T19:34:30.778Z,19.40
2018-07-07T19:37:04.954Z,17.33
2018-07-07T19:39:33.714Z,17.13
2018-07-07T19:42:02.700Z,14.27
2018-07-07T19:44:31.525Z,17.17
2018-07-07T19:47:00.302Z,19.57
2018-07-07T19:49:29.275Z,17.13
2018-07-07T19:51:58.045Z,24.57
2018-07-07T19:54:27.829Z,26.00
2018-07-07T19:56:57.951Z,26.13
2018-07-07T19:59:26.795Z,19.43
2018-07-07T20:01:55.768Z,16.23
2018-07-07T20:04:24.892Z,15.77
2018-07-07T20:06:53.828Z,17.47
2018-07-07T20:09:22.646Z,15.47
2018-07-07T20:11:51.604Z,18.23
2018-07-07T20:14:22.174Z,15.53
2018-07-07T20:17:01.237Z,14.57
2018-07-07T20:19:34.058Z,15.00
2018-07-07T20:22:03.769Z,16.63
2018-07-07T20:24:35.697Z,15.97
2018-07-07T20:27:09.586Z,19.57
2018-07-07T20:29:38.377Z,17.53
2018-07-07T20:32:12.919Z,14.37
2018-07-07T20:34:41.610Z,15.97
2018-07-07T20:37:10.423Z,16.70
2018-07-07T20:39:38.954Z,22.83
2018-07-07T20:42:07.871Z,20.47
2018-07-07T20:44:36.603Z,14.70
2018-07-07T20:47:05.558Z,18.53
2018-07-07T20:49:34.307Z,22.47
2018-07-07T20:52:03.463Z,18.37
2018-07-07T20:54:32.420Z,18.47
2018-07-07T20:57:01.642Z,18.83
2018-07-07T20:59:29.942Z,16.90
2018-07-07T21:01:58.413Z,19.50
2018-07-07T21:04:26.695Z,16.10
2018-07-07T21:06:55.003Z,21.33
2018-07-07T21:09:23.278Z,14.23
2018-07-07T21:11:52.736Z,15.23
2018-07-07T21:14:21.097Z,17.13
2018-07-07T21:16:49.438Z,19.77
2018-07-07T21:19:17.722Z,21.43
2018-07-07T21:21:46.060Z,17.17
2018-07-07T21:24:15.136Z,16.00
2018-07-07T21:26:43.405Z,13.37
2018-07-07T21:29:11.739Z,19.73
2018-07-07T21:31:40.025Z,15.73
2018-07-07T21:34:08.877Z,14.03
2018-07-07T21:36:37.241Z,22.13
2018-07-07T21:39:05.697Z,19.90
2018-07-07T21:41:33.976Z,20.63
2018-07-07T21:44:02.277Z,19.30
2018-07-07T21:46:30.563Z,15.50
2018-07-07T21:48:58.886Z,17.93
2018-07-07T21:51:27.193Z,21.40
2018-07-07T21:53:55.684Z,15.63
2018-07-07T21:56:23.862Z,20.93
2018-07-07T21:58:57.542Z,13.83
2018-07-07T22:01:41.482Z,22.37
2018-07-07T22:04:15.118Z,13.30
2018-07-07T22:06:48.841Z,11.60
2018-07-07T22:09:17.150Z,17.70
2018-07-07T22:11:45.434Z,10.13
2018-07-07T22:14:13.778Z,25.20
2018-07-07T22:16:42.345Z,12.03
2018-07-07T22:19:10.886Z,14.30
2018-07-07T22:21:44.755Z,14.20
2018-07-07T22:24:13.117Z,12.80
2018-07-07T22:26:42.043Z,14.00
2018-07-07T22:29:10.378Z,14.70
2018-07-07T22:31:38.638Z,14.07
2018-07-07T22:34:06.953Z,16.53
2018-07-07T22:36:35.225Z,19.27
2018-07-07T22:39:04.369Z,11.40
2018-07-07T22:41:38.230Z,9.20
2018-07-07T22:44:06.560Z,10.17
2018-07-07T22:46:34.840Z,13.53
2018-07-07T22:49:03.156Z,15.50
2018-07-07T22:51:31.449Z,10.83
2018-07-07T22:53:59.782Z,13.03
2018-07-07T22:56:28.201Z,15.77
2018-07-07T22:58:56.526Z,9.67
2018-07-07T23:01:24.829Z,9.37
2018-07-07T23:03:53.105Z,13.00
2018-07-07T23:06:21.414Z,9.23
2018-07-07T23:08:49.866Z,11.50
2018-07-07T23:11:18.177Z,14.50
2018-07-07T23:13:46.465Z,8.90
2018-07-07T23:16:14.882Z,11.63
2018-07-07T23:18:43.145Z,11.80
2018-07-07T23:21:11.471Z,8.27
2018-07-07T23:23:39.753Z,12.03
2018-07-07T23:26:08.080Z,6.60
2018-07-07T23:28:37.219Z,7.70
2018-07-07T23:31:05.561Z,5.27
2018-07-07T23:33:33.848Z,9.27
2018-07-07T23:36:02.190Z,10.77
2018-07-07T23:38:30.501Z,11.93
2018-07-07T23:40:58.809Z,8.80
2018-07-07T23:43:27.106Z,9.93
2018-07-07T23:45:55.424Z,6.00
2018-07-07T23:48:24.565Z,8.03
2018-07-07T23:50:54.558Z,12.60
2018-07-07T23:53:22.825Z,15.73
2018-07-07T23:55:51.145Z,12.80
2018-07-07T23:58:19.434Z,8.87
